sensor_id;sensor_type;location;lat;lon;timestamp;P1;durP1;ratioP1;P2;durP2;ratioP2
1010;SDS011;494;48.744;10.106;2024-02-16T00:00:13;958.30;;;816.40;;
1010;SDS011;494;48.744;10.106;2024-02-16T00:02:44;981.57;;;845.20;;
1010;SDS011;494;48.744;10.106;2024-02-16T00:05:13;931.43;;;815.77;;
1010;SDS011;494;48.744;10.106;2024-02-16T00:07:42;964.97;;;831.10;;
1010;SDS011;494;48.744;10.106;2024-02-16T00:10:12;915.73;;;813.40;;
1010;SDS011;494;48.744;10.106;2024-02-16T00:12:41;923.73;;;818.13;;
1010;SDS011;494;48.744;10.106;2024-02-16T00:15:10;908.30;;;808.70;;
1010;SDS011;494;48.744;10.106;2024-02-16T00:17:39;909.10;;;810.17;;
1010;SDS011;494;48.744;10.106;2024-02-16T00:20:08;938.40;;;814.87;;
1010;SDS011;494;48.744;10.106;2024-02-16T00:22:39;959.37;;;824.07;;
1010;SDS011;494;48.744;10.106;2024-02-16T00:25:08;934.30;;;807.90;;
1010;SDS011;494;48.744;10.106;2024-02-16T00:27:39;943.33;;;828.50;;
1010;SDS011;494;48.744;10.106;2024-02-16T00:30:08;903.27;;;803.93;;
1010;SDS011;494;48.744;10.106;2024-02-16T00:32:38;890.90;;;794.80;;
1010;SDS011;494;48.744;10.106;2024-02-16T00:35:07;886.70;;;788.00;;
1010;SDS011;494;48.744;10.106;2024-02-16T00:37:38;889.53;;;793.47;;
1010;SDS011;494;48.744;10.106;2024-02-16T00:40:07;913.00;;;808.77;;
1010;SDS011;494;48.744;10.106;2024-02-16T00:42:38;948.67;;;819.27;;
1010;SDS011;494;48.744;10.106;2024-02-16T00:45:07;894.07;;;797.17;;
1010;SDS011;494;48.744;10.106;2024-02-16T00:47:37;883.77;;;788.27;;
1010;SDS011;494;48.744;10.106;2024-02-16T00:50:06;882.67;;;787.83;;
1010;SDS011;494;48.744;10.106;2024-02-16T00:52:36;900.97;;;795.80;;
1010;SDS011;494;48.744;10.106;2024-02-16T00:55:07;873.13;;;776.30;;
1010;SDS011;494;48.744;10.106;2024-02-16T00:57:36;906.13;;;797.57;;
1010;SDS011;494;48.744;10.106;2024-02-16T01:00:07;867.63;;;773.63;;
1010;SDS011;494;48.744;10.106;2024-02-16T01:02:38;868.10;;;775.50;;
1010;SDS011;494;48.744;10.106;2024-02-16T01:05:07;884.73;;;788.67;;
1010;SDS011;494;48.744;10.106;2024-02-16T01:07:37;905.83;;;796.63;;
1010;SDS011;494;48.744;10.106;2024-02-16T01:10:06;896.73;;;790.30;;
1010;SDS011;494;48.744;10.106;2024-02-16T01:12:36;882.57;;;787.07;;
1010;SDS011;494;48.744;10.106;2024-02-16T01:15:07;834.40;;;747.83;;
1010;SDS011;494;48.744;10.106;2024-02-16T01:17:37;912.87;;;803.67;;
1010;SDS011;494;48.744;10.106;2024-02-16T01:20:07;873.50;;;780.83;;
1010;SDS011;494;48.744;10.106;2024-02-16T01:22:39;923.13;;;815.63;;
1010;SDS011;494;48.744;10.106;2024-02-16T01:25:09;927.23;;;819.83;;
1010;SDS011;494;48.744;10.106;2024-02-16T01:27:40;888.87;;;792.67;;
1010;SDS011;494;48.744;10.106;2024-02-16T01:30:11;871.27;;;776.80;;
1010;SDS011;494;48.744;10.106;2024-02-16T01:32:42;883.00;;;784.70;;
1010;SDS011;494;48.744;10.106;2024-02-16T01:35:11;919.23;;;813.40;;
1010;SDS011;494;48.744;10.106;2024-02-16T01:37:41;882.93;;;787.53;;
1010;SDS011;494;48.744;10.106;2024-02-16T01:40:13;868.33;;;775.50;;
1010;SDS011;494;48.744;10.106;2024-02-16T01:42:46;875.00;;;780.47;;
1010;SDS011;494;48.744;10.106;2024-02-16T01:45:15;901.60;;;802.70;;
1010;SDS011;494;48.744;10.106;2024-02-16T01:47:45;868.20;;;773.37;;
1010;SDS011;494;48.744;10.106;2024-02-16T01:50:19;877.73;;;782.07;;
1010;SDS011;494;48.744;10.106;2024-02-16T01:52:48;868.50;;;773.17;;
1010;SDS011;494;48.744;10.106;2024-02-16T01:55:18;875.80;;;780.60;;
1010;SDS011;494;48.744;10.106;2024-02-16T01:57:50;949.87;;;816.20;;
1010;SDS011;494;48.744;10.106;2024-02-16T02:00:19;912.33;;;809.37;;
1010;SDS011;494;48.744;10.106;2024-02-16T02:02:48;909.07;;;806.73;;
1010;SDS011;494;48.744;10.106;2024-02-16T02:05:18;886.47;;;791.13;;
1010;SDS011;494;48.744;10.106;2024-02-16T02:07:48;907.03;;;807.03;;
1010;SDS011;494;48.744;10.106;2024-02-16T02:10:17;887.90;;;790.00;;
1010;SDS011;494;48.744;10.106;2024-02-16T02:12:46;875.37;;;780.63;;
1010;SDS011;494;48.744;10.106;2024-02-16T02:15:16;895.70;;;797.07;;
1010;SDS011;494;48.744;10.106;2024-02-16T02:17:47;860.10;;;766.80;;
1010;SDS011;494;48.744;10.106;2024-02-16T02:20:16;913.97;;;815.57;;
1010;SDS011;494;48.744;10.106;2024-02-16T02:22:48;907.23;;;808.33;;
1010;SDS011;494;48.744;10.106;2024-02-16T02:25:17;973.53;;;827.13;;
1010;SDS011;494;48.744;10.106;2024-02-16T02:27:50;957.67;;;822.40;;
1010;SDS011;494;48.744;10.106;2024-02-16T02:30:21;905.50;;;807.07;;
1010;SDS011;494;48.744;10.106;2024-02-16T02:32:52;912.00;;;810.67;;
1010;SDS011;494;48.744;10.106;2024-02-16T02:35:23;930.87;;;814.50;;
1010;SDS011;494;48.744;10.106;2024-02-16T02:37:53;925.27;;;821.80;;
1010;SDS011;494;48.744;10.106;2024-02-16T02:40:22;889.70;;;792.57;;
1010;SDS011;494;48.744;10.106;2024-02-16T02:42:51;868.93;;;774.97;;
1010;SDS011;494;48.744;10.106;2024-02-16T02:45:22;875.73;;;780.53;;
1010;SDS011;494;48.744;10.106;2024-02-16T02:47:51;883.87;;;787.17;;
1010;SDS011;494;48.744;10.106;2024-02-16T02:50:21;927.03;;;814.23;;
1010;SDS011;494;48.744;10.106;2024-02-16T02:52:50;853.17;;;762.07;;
1010;SDS011;494;48.744;10.106;2024-02-16T02:55:21;987.43;;;854.17;;
1010;SDS011;494;48.744;10.106;2024-02-16T02:57:49;877.73;;;783.63;;
1010;SDS011;494;48.744;10.106;2024-02-16T03:00:18;900.70;;;801.30;;
1010;SDS011;494;48.744;10.106;2024-02-16T03:02:48;853.10;;;762.07;;
1010;SDS011;494;48.744;10.106;2024-02-16T03:05:18;886.10;;;788.47;;
1010;SDS011;494;48.744;10.106;2024-02-16T03:07:48;889.33;;;792.03;;
1010;SDS011;494;48.744;10.106;2024-02-16T03:10:19;879.07;;;783.10;;
1010;SDS011;494;48.744;10.106;2024-02-16T03:12:50;884.50;;;789.37;;
1010;SDS011;494;48.744;10.106;2024-02-16T03:15:19;869.30;;;776.30;;
1010;SDS011;494;48.744;10.106;2024-02-16T03:17:48;909.67;;;809.33;;
1010;SDS011;494;48.744;10.106;2024-02-16T03:20:17;892.40;;;793.50;;
1010;SDS011;494;48.744;10.106;2024-02-16T03:22:49;945.60;;;822.07;;
1010;SDS011;494;48.744;10.106;2024-02-16T03:25:21;925.80;;;820.00;;
1010;SDS011;494;48.744;10.106;2024-02-16T03:27:51;913.27;;;802.13;;
1010;SDS011;494;48.744;10.106;2024-02-16T03:30:26;978.37;;;838.10;;
1010;SDS011;494;48.744;10.106;2024-02-16T03:32:55;883.30;;;785.03;;
1010;SDS011;494;48.744;10.106;2024-02-16T03:35:24;972.43;;;836.20;;
1010;SDS011;494;48.744;10.106;2024-02-16T03:37:54;915.37;;;801.00;;
1010;SDS011;494;48.744;10.106;2024-02-16T03:40:25;919.47;;;816.60;;
1010;SDS011;494;48.744;10.106;2024-02-16T03:42:54;952.43;;;823.63;;
1010;SDS011;494;48.744;10.106;2024-02-16T03:45:23;874.53;;;780.77;;
1010;SDS011;494;48.744;10.106;2024-02-16T03:47:53;893.17;;;794.87;;
1010;SDS011;494;48.744;10.106;2024-02-16T03:50:23;846.37;;;753.77;;
1010;SDS011;494;48.744;10.106;2024-02-16T03:52:51;859.23;;;765.60;;
1010;SDS011;494;48.744;10.106;2024-02-16T03:55:20;837.47;;;748.63;;
1010;SDS011;494;48.744;10.106;2024-02-16T03:58:00;854.90;;;764.33;;
1010;SDS011;494;48.744;10.106;2024-02-16T04:00:55;1023.33;;;861.50;;
1010;SDS011;494;48.744;10.106;2024-02-16T04:03:25;910.13;;;802.10;;
1010;SDS011;494;48.744;10.106;2024-02-16T04:05:55;863.13;;;771.00;;
1010;SDS011;494;48.744;10.106;2024-02-16T04:08:23;882.17;;;786.03;;
1010;SDS011;494;48.744;10.106;2024-02-16T04:10:53;863.83;;;770.17;;
1010;SDS011;494;48.744;10.106;2024-02-16T04:13:23;836.40;;;746.03;;
1010;SDS011;494;48.744;10.106;2024-02-16T04:15:52;972.17;;;837.73;;
1010;SDS011;494;48.744;10.106;2024-02-16T04:18:22;879.07;;;783.30;;
1010;SDS011;494;48.744;10.106;2024-02-16T04:20:51;886.63;;;788.87;;
1010;SDS011;494;48.744;10.106;2024-02-16T04:23:20;890.00;;;793.03;;
1010;SDS011;494;48.744;10.106;2024-02-16T04:25:48;996.87;;;855.23;;
1010;SDS011;494;48.744;10.106;2024-02-16T04:28:17;881.60;;;788.47;;
1010;SDS011;494;48.744;10.106;2024-02-16T04:30:51;913.17;;;810.37;;
1010;SDS011;494;48.744;10.106;2024-02-16T04:33:21;894.80;;;797.43;;
1010;SDS011;494;48.744;10.106;2024-02-16T04:35:51;881.93;;;788.30;;
1010;SDS011;494;48.744;10.106;2024-02-16T04:38:20;960.93;;;828.17;;
1010;SDS011;494;48.744;10.106;2024-02-16T04:40:48;916.83;;;813.70;;
1010;SDS011;494;48.744;10.106;2024-02-16T04:43:17;941.90;;;818.67;;
1010;SDS011;494;48.744;10.106;2024-02-16T04:45:49;880.83;;;784.90;;
1010;SDS011;494;48.744;10.106;2024-02-16T04:48:18;949.70;;;821.57;;
1010;SDS011;494;48.744;10.106;2024-02-16T04:50:47;924.00;;;818.93;;
1010;SDS011;494;48.744;10.106;2024-02-16T04:53:16;908.70;;;807.43;;
1010;SDS011;494;48.744;10.106;2024-02-16T04:55:45;900.60;;;800.97;;
1010;SDS011;494;48.744;10.106;2024-02-16T04:58:14;936.70;;;823.60;;
1010;SDS011;494;48.744;10.106;2024-02-16T05:00:43;940.30;;;821.27;;
1010;SDS011;494;48.744;10.106;2024-02-16T05:03:15;893.80;;;796.97;;
1010;SDS011;494;48.744;10.106;2024-02-16T05:05:43;865.30;;;770.47;;
1010;SDS011;494;48.744;10.106;2024-02-16T05:08:13;976.80;;;845.83;;
1010;SDS011;494;48.744;10.106;2024-02-16T05:10:42;943.07;;;819.40;;
1010;SDS011;494;48.744;10.106;2024-02-16T05:13:11;1038.30;;;865.20;;
1010;SDS011;494;48.744;10.106;2024-02-16T05:15:44;1022.77;;;863.17;;
1010;SDS011;494;48.744;10.106;2024-02-16T05:18:16;987.70;;;856.33;;
1010;SDS011;494;48.744;10.106;2024-02-16T05:20:45;987.23;;;842.57;;
1010;SDS011;494;48.744;10.106;2024-02-16T05:23:15;1014.30;;;864.07;;
1010;SDS011;494;48.744;10.106;2024-02-16T05:25:45;1048.47;;;882.50;;
1010;SDS011;494;48.744;10.106;2024-02-16T05:28:14;1038.20;;;865.37;;
1010;SDS011;494;48.744;10.106;2024-02-16T05:30:43;1133.90;;;916.70;;
1010;SDS011;494;48.744;10.106;2024-02-16T05:33:21;1092.97;;;881.87;;
1010;SDS011;494;48.744;10.106;2024-02-16T05:35:50;1177.87;;;914.50;;
1010;SDS011;494;48.744;10.106;2024-02-16T05:38:22;1051.70;;;888.73;;
1010;SDS011;494;48.744;10.106;2024-02-16T05:41:02;1091.37;;;896.13;;
1010;SDS011;494;48.744;10.106;2024-02-16T05:43:31;1160.57;;;923.43;;
1010;SDS011;494;48.744;10.106;2024-02-16T05:46:01;1020.23;;;859.30;;
1010;SDS011;494;48.744;10.106;2024-02-16T05:48:34;1154.43;;;926.53;;
1010;SDS011;494;48.744;10.106;2024-02-16T05:51:06;1299.47;;;982.67;;
1010;SDS011;494;48.744;10.106;2024-02-16T05:53:39;1242.13;;;945.20;;
1010;SDS011;494;48.744;10.106;2024-02-16T05:56:08;1180.60;;;928.37;;
1010;SDS011;494;48.744;10.106;2024-02-16T05:58:37;1093.77;;;902.83;;
1010;SDS011;494;48.744;10.106;2024-02-16T06:01:08;1019.53;;;866.47;;
1010;SDS011;494;48.744;10.106;2024-02-16T06:03:42;1036.17;;;868.23;;
1010;SDS011;494;48.744;10.106;2024-02-16T06:06:11;1305.57;;;949.03;;
1010;SDS011;494;48.744;10.106;2024-02-16T06:08:41;1283.73;;;957.63;;
1010;SDS011;494;48.744;10.106;2024-02-16T06:11:10;1090.27;;;880.83;;
1010;SDS011;494;48.744;10.106;2024-02-16T06:13:39;1131.37;;;901.67;;
1010;SDS011;494;48.744;10.106;2024-02-16T06:16:08;980.90;;;854.97;;
1010;SDS011;494;48.744;10.106;2024-02-16T06:18:38;1046.43;;;880.40;;
1010;SDS011;494;48.744;10.106;2024-02-16T06:21:10;1014.07;;;856.93;;
1010;SDS011;494;48.744;10.106;2024-02-16T06:23:40;1152.47;;;908.70;;
1010;SDS011;494;48.744;10.106;2024-02-16T06:26:14;1150.77;;;913.50;;
1010;SDS011;494;48.744;10.106;2024-02-16T06:28:43;1162.77;;;937.13;;
1010;SDS011;494;48.744;10.106;2024-02-16T06:31:12;1100.23;;;894.37;;
1010;SDS011;494;48.744;10.106;2024-02-16T06:33:42;1087.27;;;878.30;;
1010;SDS011;494;48.744;10.106;2024-02-16T06:36:15;1074.87;;;894.83;;
1010;SDS011;494;48.744;10.106;2024-02-16T06:38:45;1177.60;;;936.57;;
1010;SDS011;494;48.744;10.106;2024-02-16T06:41:15;1071.43;;;863.57;;
1010;SDS011;494;48.744;10.106;2024-02-16T06:43:47;1191.80;;;908.13;;
1010;SDS011;494;48.744;10.106;2024-02-16T06:46:18;1138.50;;;886.27;;
1010;SDS011;494;48.744;10.106;2024-02-16T06:48:47;1144.00;;;905.90;;
1010;SDS011;494;48.744;10.106;2024-02-16T06:51:18;1232.40;;;926.37;;
1010;SDS011;494;48.744;10.106;2024-02-16T06:53:49;1100.33;;;871.73;;
1010;SDS011;494;48.744;10.106;2024-02-16T06:56:18;1219.33;;;914.00;;
1010;SDS011;494;48.744;10.106;2024-02-16T06:58:47;1192.10;;;932.03;;
1010;SDS011;494;48.744;10.106;2024-02-16T07:01:16;1112.70;;;892.57;;
1010;SDS011;494;48.744;10.106;2024-02-16T07:03:47;1191.23;;;929.30;;
1010;SDS011;494;48.744;10.106;2024-02-16T07:06:19;1151.23;;;900.47;;
1010;SDS011;494;48.744;10.106;2024-02-16T07:08:48;1173.73;;;915.80;;
1010;SDS011;494;48.744;10.106;2024-02-16T07:11:17;1135.33;;;916.17;;
1010;SDS011;494;48.744;10.106;2024-02-16T07:13:50;1206.57;;;922.17;;
1010;SDS011;494;48.744;10.106;2024-02-16T07:16:19;1050.30;;;880.70;;
1010;SDS011;494;48.744;10.106;2024-02-16T07:18:48;1141.20;;;931.67;;
1010;SDS011;494;48.744;10.106;2024-02-16T07:21:19;1036.07;;;887.27;;
1010;SDS011;494;48.744;10.106;2024-02-16T07:23:49;1115.73;;;951.03;;
1010;SDS011;494;48.744;10.106;2024-02-16T07:26:18;1148.90;;;950.93;;
1010;SDS011;494;48.744;10.106;2024-02-16T07:28:47;1192.43;;;959.93;;
1010;SDS011;494;48.744;10.106;2024-02-16T07:31:16;1197.83;;;975.40;;
1010;SDS011;494;48.744;10.106;2024-02-16T07:33:45;1084.00;;;926.57;;
1010;SDS011;494;48.744;10.106;2024-02-16T07:36:15;1104.93;;;936.43;;
1010;SDS011;494;48.744;10.106;2024-02-16T07:38:47;1112.20;;;910.27;;
1010;SDS011;494;48.744;10.106;2024-02-16T07:41:16;1098.90;;;891.10;;
1010;SDS011;494;48.744;10.106;2024-02-16T07:43:45;1175.23;;;922.57;;
1010;SDS011;494;48.744;10.106;2024-02-16T07:46:15;1129.37;;;919.60;;
1010;SDS011;494;48.744;10.106;2024-02-16T07:48:44;1129.23;;;916.07;;
1010;SDS011;494;48.744;10.106;2024-02-16T07:51:15;1188.57;;;934.00;;
1010;SDS011;494;48.744;10.106;2024-02-16T07:53:44;1165.60;;;916.20;;
1010;SDS011;494;48.744;10.106;2024-02-16T07:56:15;1182.10;;;938.03;;
1010;SDS011;494;48.744;10.106;2024-02-16T07:58:45;1218.10;;;953.53;;
1010;SDS011;494;48.744;10.106;2024-02-16T08:01:14;1160.13;;;914.80;;
1010;SDS011;494;48.744;10.106;2024-02-16T08:03:44;1199.10;;;950.50;;
1010;SDS011;494;48.744;10.106;2024-02-16T08:06:13;1159.63;;;927.90;;
1010;SDS011;494;48.744;10.106;2024-02-16T08:08:43;941.10;;;839.43;;
1010;SDS011;494;48.744;10.106;2024-02-16T08:11:14;1004.40;;;897.47;;
1010;SDS011;494;48.744;10.106;2024-02-16T08:13:43;1043.40;;;874.77;;
1010;SDS011;494;48.744;10.106;2024-02-16T08:16:13;1169.30;;;937.00;;
1010;SDS011;494;48.744;10.106;2024-02-16T08:18:43;948.90;;;843.47;;
1010;SDS011;494;48.744;10.106;2024-02-16T08:21:13;966.70;;;853.47;;
1010;SDS011;494;48.744;10.106;2024-02-16T08:23:45;1046.33;;;885.77;;
1010;SDS011;494;48.744;10.106;2024-02-16T08:26:18;895.90;;;792.33;;
1010;SDS011;494;48.744;10.106;2024-02-16T08:28:49;946.40;;;824.57;;
1010;SDS011;494;48.744;10.106;2024-02-16T08:31:18;890.87;;;793.97;;
1010;SDS011;494;48.744;10.106;2024-02-16T08:33:47;793.53;;;709.07;;
1010;SDS011;494;48.744;10.106;2024-02-16T08:36:16;807.47;;;719.17;;
1010;SDS011;494;48.744;10.106;2024-02-16T08:38:48;848.50;;;756.93;;
1010;SDS011;494;48.744;10.106;2024-02-16T08:41:20;814.47;;;728.47;;
1010;SDS011;494;48.744;10.106;2024-02-16T08:43:51;761.17;;;681.87;;
1010;SDS011;494;48.744;10.106;2024-02-16T08:46:19;776.33;;;696.83;;
1010;SDS011;494;48.744;10.106;2024-02-16T08:48:49;650.73;;;587.77;;
1010;SDS011;494;48.744;10.106;2024-02-16T08:51:22;636.70;;;574.70;;
1010;SDS011;494;48.744;10.106;2024-02-16T08:53:54;582.07;;;525.27;;
1010;SDS011;494;48.744;10.106;2024-02-16T08:56:24;577.47;;;521.47;;
1010;SDS011;494;48.744;10.106;2024-02-16T08:58:53;575.03;;;521.63;;
1010;SDS011;494;48.744;10.106;2024-02-16T09:01:29;669.57;;;607.10;;
1010;SDS011;494;48.744;10.106;2024-02-16T09:03:59;644.27;;;583.60;;
1010;SDS011;494;48.744;10.106;2024-02-16T09:06:29;624.37;;;566.57;;
1010;SDS011;494;48.744;10.106;2024-02-16T10:27:05;532.90;;;483.87;;
1010;SDS011;494;48.744;10.106;2024-02-16T12:29:25;495.07;;;452.13;;
1010;SDS011;494;48.744;10.106;2024-02-16T12:40:39;360.73;;;329.77;;
1010;SDS011;494;48.744;10.106;2024-02-16T13:02:07;509.40;;;463.33;;
1010;SDS011;494;48.744;10.106;2024-02-16T13:04:49;606.40;;;551.60;;
1010;SDS011;494;48.744;10.106;2024-02-16T13:09:39;505.83;;;460.17;;
1010;SDS011;494;48.744;10.106;2024-02-16T13:12:13;544.37;;;496.33;;
1010;SDS011;494;48.744;10.106;2024-02-16T13:18:17;350.30;;;319.90;;
1010;SDS011;494;48.744;10.106;2024-02-16T13:20:46;424.00;;;387.07;;
1010;SDS011;494;48.744;10.106;2024-02-16T13:23:18;374.47;;;342.27;;
1010;SDS011;494;48.744;10.106;2024-02-16T13:25:59;367.70;;;335.63;;
1010;SDS011;494;48.744;10.106;2024-02-16T13:28:37;401.10;;;366.93;;
1010;SDS011;494;48.744;10.106;2024-02-16T13:31:23;462.70;;;424.40;;
1010;SDS011;494;48.744;10.106;2024-02-16T13:34:25;468.00;;;428.67;;
1010;SDS011;494;48.744;10.106;2024-02-16T13:40:34;450.33;;;412.67;;
1010;SDS011;494;48.744;10.106;2024-02-16T13:47:42;551.17;;;509.50;;
1010;SDS011;494;48.744;10.106;2024-02-16T15:01:04;567.47;;;523.87;;
1010;SDS011;494;48.744;10.106;2024-02-16T15:03:49;496.53;;;454.47;;
1010;SDS011;494;48.744;10.106;2024-02-16T15:06:49;557.63;;;512.83;;
1010;SDS011;494;48.744;10.106;2024-02-16T15:09:21;428.97;;;392.27;;
1010;SDS011;494;48.744;10.106;2024-02-16T15:11:56;376.50;;;342.37;;
1010;SDS011;494;48.744;10.106;2024-02-16T15:14:25;289.03;;;260.70;;
1010;SDS011;494;48.744;10.106;2024-02-16T15:16:57;359.03;;;325.80;;
1010;SDS011;494;48.744;10.106;2024-02-16T15:19:26;229.27;;;205.30;;
1010;SDS011;494;48.744;10.106;2024-02-16T15:21:57;264.47;;;238.47;;
1010;SDS011;494;48.744;10.106;2024-02-16T15:24:32;251.57;;;226.80;;
1010;SDS011;494;48.744;10.106;2024-02-16T15:27:18;297.70;;;269.03;;
1010;SDS011;494;48.744;10.106;2024-02-16T15:30:09;288.23;;;260.80;;
1010;SDS011;494;48.744;10.106;2024-02-16T15:32:45;309.60;;;281.03;;
1010;SDS011;494;48.744;10.106;2024-02-16T15:35:19;280.17;;;253.73;;
1010;SDS011;494;48.744;10.106;2024-02-16T15:37:49;297.10;;;269.87;;
1010;SDS011;494;48.744;10.106;2024-02-16T15:40:19;326.07;;;296.17;;
1010;SDS011;494;48.744;10.106;2024-02-16T15:42:59;327.63;;;297.13;;
1010;SDS011;494;48.744;10.106;2024-02-16T15:45:36;265.33;;;238.90;;
1010;SDS011;494;48.744;10.106;2024-02-16T15:48:11;281.97;;;255.40;;
1010;SDS011;494;48.744;10.106;2024-02-16T15:50:43;356.57;;;325.23;;
1010;SDS011;494;48.744;10.106;2024-02-16T15:53:20;318.37;;;289.20;;
1010;SDS011;494;48.744;10.106;2024-02-16T15:55:56;394.70;;;359.30;;
1010;SDS011;494;48.744;10.106;2024-02-16T15:59:01;280.17;;;250.93;;
1010;SDS011;494;48.744;10.106;2024-02-16T16:01:44;336.83;;;306.00;;
1010;SDS011;494;48.744;10.106;2024-02-16T16:04:26;386.40;;;351.47;;
1010;SDS011;494;48.744;10.106;2024-02-16T16:07:04;400.73;;;365.33;;
1010;SDS011;494;48.744;10.106;2024-02-16T16:12:49;390.77;;;354.97;;
1010;SDS011;494;48.744;10.106;2024-02-16T16:15:29;525.10;;;480.13;;
1010;SDS011;494;48.744;10.106;2024-02-16T16:18:01;596.13;;;546.60;;
1010;SDS011;494;48.744;10.106;2024-02-16T16:20:33;587.93;;;538.67;;
1010;SDS011;494;48.744;10.106;2024-02-16T16:23:03;544.43;;;496.63;;
1010;SDS011;494;48.744;10.106;2024-02-16T16:25:52;498.33;;;455.23;;
1010;SDS011;494;48.744;10.106;2024-02-16T16:28:28;628.53;;;575.47;;
1010;SDS011;494;48.744;10.106;2024-02-16T16:31:00;667.20;;;611.93;;
1010;SDS011;494;48.744;10.106;2024-02-16T16:33:38;646.20;;;591.47;;
1010;SDS011;494;48.744;10.106;2024-02-16T16:36:13;660.73;;;607.00;;
1010;SDS011;494;48.744;10.106;2024-02-16T16:38:43;647.43;;;594.37;;
1010;SDS011;494;48.744;10.106;2024-02-16T16:41:17;638.43;;;586.73;;
1010;SDS011;494;48.744;10.106;2024-02-16T16:43:59;582.37;;;535.10;;
1010;SDS011;494;48.744;10.106;2024-02-16T16:50:58;442.13;;;403.13;;
1010;SDS011;494;48.744;10.106;2024-02-16T16:53:28;412.50;;;377.43;;
1010;SDS011;494;48.744;10.106;2024-02-16T16:55:57;505.37;;;463.70;;
1010;SDS011;494;48.744;10.106;2024-02-16T16:58:42;455.43;;;417.10;;
1010;SDS011;494;48.744;10.106;2024-02-16T17:01:12;443.70;;;405.93;;
1010;SDS011;494;48.744;10.106;2024-02-16T17:03:58;433.67;;;396.80;;
1010;SDS011;494;48.744;10.106;2024-02-16T17:06:53;420.00;;;382.47;;
1010;SDS011;494;48.744;10.106;2024-02-16T17:09:26;424.03;;;387.40;;
1010;SDS011;494;48.744;10.106;2024-02-16T17:11:55;430.17;;;393.03;;
1010;SDS011;494;48.744;10.106;2024-02-16T17:14:30;452.20;;;412.17;;
1010;SDS011;494;48.744;10.106;2024-02-16T17:17:05;404.87;;;369.13;;
